• Join FlightAware (Why Join?)
  • Login
  • US Flag 
01:54PM EDT


 

Airport Tracker/Info


-or-


 

Live Flight TrackerFlight Track Log ✈ N7192Y ✈ 27-Apr-2013 ✈ KBTV - 2G9

Flight Track Log - Related Links

Times and Time Zones

All times are in EDT time to prevent confusion due to time zone crossing. See the N7192Y flight status page for this flight to view local times or setup timezone preferences in your user account.

Time Position Orientation Groundspeed Altitude Reporting Facility
EDT Latitude Longitude Course Direction KTS MPH feet Rate Location/Type
07:18AM 44.2477 -73.1881 190° South  Level FlightAware Approximate
07:19AM 44.2042 -73.1990 190° South  Level FlightAware Approximate
07:20AM 44.1608 -73.2098 190° South  Level FlightAware Approximate
07:21AM 44.1171 -73.2167 180° South  Level FlightAware Approximate
07:22AM 44.0735 -73.2260 189° South  Level FlightAware Approximate
07:22AM 44.1631 -73.1925 187° South 137 158 7,400  Level Boston Center
07:23AM 44.0299 -73.2353 189° South  Level FlightAware Approximate
07:23AM 44.1256 -73.2008 189° South 137 158 8,000  Level Boston Center
07:24AM 43.9862 -73.2447 189° South  Level FlightAware Approximate
07:24AM 44.0900 -73.2089 189° South 130 150 8,100  Level Boston Center
07:25AM 43.9426 -73.2540 189° South  Level FlightAware Approximate
07:25AM 44.0483 -73.2200 191° South 149 171 8,100  Level Boston Center
07:26AM 43.8990 -73.2633 189° South  Level FlightAware Approximate
07:26AM 44.0044 -73.2308 190° South 157 181 8,100  Level Boston Center
07:27AM 43.8552 -73.2714 187° South  Level FlightAware Approximate
07:27AM 43.9606 -73.2419 190° South 163 188 8,100  Level Boston Center
07:28AM 43.9167 -73.2500 188° South 163 188 8,100  Level Boston Center
07:29AM 43.8731 -73.2608 190° South 163 188 8,100  Level Boston Center
07:30AM 43.8292 -73.2719 190° South 163 188 8,100  Level Boston Center
07:31AM 43.7894 -73.2828 191° South 163 188 8,100  Level Boston Center
07:32AM 43.7456 -73.2936 190° South 163 188 8,100  Level Boston Center
07:33AM 43.6975 -73.3044 189° South 163 188 8,100  Level Boston Center
07:34AM 43.6433 -73.3094 184° South 163 188 8,100  Level Boston Center
07:35AM 43.6078 -73.3117 183° South 163 188 8,100  Level Boston Center
07:36AM 43.5558 -73.3139 182° South 163 188 8,100 -120 Level Boston Center
07:36AM 43.5308 -73.3164 184° South 160 184 8,000  Descending Boston Center
07:37AM 43.5181 -73.3361 228° Southwest 158 182 8,100 60 Climbing Boston Center
07:38AM 43.4928 -73.3644 219° Southwest 154 177 8,100  Level Boston Center
07:38AM 43.4844 -73.3700 206° Southwest 153 176 8,100  Level Boston Center
07:39AM 43.4614 -73.4011 224° Southwest 154 177 8,100  Level Boston Center
07:39AM 43.4528 -73.4097 216° Southwest 153 176 8,100  Level Boston Center
07:40AM 43.4297 -73.4350 219° Southwest 152 175 8,100  Level Boston Center
07:40AM 43.4214 -73.4519 236° Southwest 158 182 8,100  Level Boston Center
07:41AM 43.3981 -73.4744 215° Southwest 153 176 8,100  Level Boston Center
07:41AM 43.3875 -73.4886 224° Southwest 166 191 8,100  Level Boston Center
07:42AM 43.3664 -73.5167 224° Southwest 156 180 8,100  Level Boston Center
07:42AM 43.3517 -73.5308 215° Southwest 161 185 8,100  Level Boston Center
07:43AM 43.3369 -73.5561 231° Southwest 153 176 8,100  Level Boston Center
07:43AM 43.3244 -73.5675 214° Southwest 155 178 8,100  Level Boston Center
07:44AM 43.3033 -73.5928 221° Southwest 155 178 8,100  Level Boston Center
07:44AM 43.2886 -73.6094 219° Southwest 160 184 8,100  Level Boston Center
07:45AM 43.2694 -73.6347 224° Southwest 153 176 8,100  Level Boston Center
07:45AM 43.2611 -73.6461 225° Southwest 160 184 8,100  Level Boston Center
07:46AM 43.2397 -73.6769 226° Southwest 153 176 8,100  Level Boston Center
07:46AM 43.2250 -73.6881 209° Southwest 160 184 8,100  Level Boston Center
07:47AM 43.2061 -73.7133 224° Southwest 153 176 8,100  Level Boston Center
07:47AM 43.1978 -73.7217 216° Southwest 160 184 8,100  Level Boston Center
07:48AM 43.1764 -73.7525 226° Southwest 153 176 8,100  Level Boston Center
07:48AM 43.1617 -73.7664 215° Southwest 160 184 8,100  Level Boston Center
07:49AM 43.1428 -73.7917 224° Southwest 153 176 8,100  Level Boston Center
07:49AM 43.1364 -73.8000 224° Southwest 160 184 8,100  Level Boston Center
07:50AM 43.1131 -73.8336 226° Southwest 152 175 8,100  Level Boston Center
07:50AM 43.1044 -73.8392 205° Southwest 160 184 8,100  Level Boston Center
07:51AM 43.0792 -73.8728 224° Southwest 153 176 8,100  Level Boston Center
07:51AM 43.0667 -73.8808 205° Southwest 160 184 8,100  Level Boston Center
07:52AM 43.0453 -73.9117 226° Southwest 154 177 8,100  Level Boston Center
07:53AM 43.0114 -73.9506 220° Southwest 154 177 8,100  Level Boston Center
07:54AM 42.9797 -73.9925 224° Southwest 155 178 8,100  Level Boston Center
07:55AM 42.9500 -74.0314 224° Southwest 154 177 8,100  Level Boston Center
07:56AM 42.9181 -74.0675 220° Southwest 153 176 8,100  Level Boston Center
07:57AM 42.8842 -74.1061 220° Southwest 153 176 8,100  Level Boston Center
07:58AM 42.8522 -74.1478 224° Southwest 154 177 8,100  Level Boston Center
07:59AM 42.8225 -74.1867 224° Southwest 153 176 8,100  Level Boston Center
08:00AM 42.7908 -74.2225 220° Southwest 154 177 8,100  Level Boston Center
08:01AM 42.7567 -74.2611 220° Southwest 156 180 8,100  Level Boston Center
08:02AM 42.7228 -74.3053 224° Southwest 157 181 8,100  Level Boston Center
08:03AM 42.6931 -74.3411 222° Southwest 156 180 8,100  Level Boston Center
08:03AM 42.6717 -74.3631 217° Southwest 164 189 8,100  Level Boston Center
08:04AM 42.6397 -74.4017 222° Southwest 164 189 8,100  Level Boston Center
08:05AM 42.6058 -74.4431 222° Southwest 157 181 8,100  Level Boston Center
08:06AM 42.5717 -74.4814 220° Southwest 157 181 8,100  Level Boston Center
08:07AM 42.5397 -74.5197 221° Southwest 157 181 8,100  Level Boston Center
08:08AM 42.5078 -74.5581 222° Southwest 157 181 8,100  Level Boston Center
08:09AM 42.4736 -74.5992 222° Southwest 162 186 8,100  Level Boston Center
08:10AM 42.4417 -74.6347 219° Southwest 157 181 8,100  Level Boston Center
08:11AM 42.4075 -74.6756 221° Southwest 162 186 8,100  Level Boston Center
08:12AM 42.3756 -74.7139 222° Southwest 162 186 8,100  Level Boston Center
08:13AM 42.3414 -74.7547 221° Southwest 162 186 8,100  Level Boston Center
08:14AM 42.3133 -74.7958 227° Southwest 162 186 8,100  Level Boston Center
08:15AM 42.2792 -74.8394 223° Southwest 169 194 8,100  Level Boston Center
08:17AM 42.2318 -74.8523 191° South  Level FlightAware Approximate
08:24AM 42.0661 -75.1873 217° Southwest  Level Estimated
08:25AM 42.0243 -75.1988 192° South  Level FlightAware Approximate
08:26AM 41.9826 -75.2104 192° South  Level FlightAware Approximate
08:27AM 41.9408 -75.2219 192° South  Level FlightAware Approximate
08:28AM 41.8990 -75.2334 192° South  Level FlightAware Approximate
08:29AM 41.8572 -75.2448 192° South  Level FlightAware Approximate
08:30AM 41.8154 -75.2563 192° South  Level FlightAware Approximate
08:31AM 41.7936 -75.3055 209° Southwest  Level Estimated
08:32AM 41.7536 -75.3253 200° South  Level FlightAware Approximate
08:32AM 41.6753 -75.3867 200° South 158 182 8,200  Level New York Center
08:33AM 41.7136 -75.3451 200° South  Level FlightAware Approximate
08:33AM 41.6606 -75.4439 251° West 158 182 8,200  Level New York Center
08:34AM 41.6735 -75.3649 200° South  Level FlightAware Approximate
08:34AM 41.6467 -75.4844 245° Southwest 158 182 8,200  Level New York Center
08:35AM 41.6335 -75.3846 200° South  Level FlightAware Approximate
08:35AM 41.6317 -75.5417 251° West 158 182 8,200  Level New York Center
08:36AM 41.5935 -75.4043 200° South  Level FlightAware Approximate
08:36AM 41.6172 -75.5961 250° West 158 182 8,200  Level New York Center
08:37AM 41.6022 -75.6561 252° West 158 182 8,200  Level New York Center
08:38AM 41.5856 -75.7047 245° Southwest 158 182 8,200  Level New York Center
08:39AM 41.5686 -75.7592 247° West 158 182 8,200  Level New York Center
08:40AM 41.5539 -75.8133 250° West 158 182 8,200  Level New York Center
08:41AM 41.5414 -75.8594 250° West 158 182 8,200  Level New York Center
08:42AM 41.5244 -75.9164 248° West 158 182 8,200  Level New York Center
08:43AM 41.5097 -75.9708 250° West 158 182 8,200  Level New York Center
08:44AM 41.4950 -76.0222 249° West 158 182 8,200  Level New York Center
08:45AM 41.4822 -76.0711 251° West 158 182 8,200  Level New York Center
08:46AM 41.4653 -76.1250 247° West 158 182 8,200 -60 Level New York Center
08:47AM 41.4503 -76.1819 251° West 158 182 8,100 -60 Descending New York Center
08:48AM 41.4331 -76.2358 247° West 158 182 8,100  Level New York Center
08:49AM 41.4181 -76.2900 250° West 158 182 8,100  Level New York Center
08:50AM 41.4033 -76.3386 248° West 158 182 8,100  Level New York Center
08:51AM 41.3883 -76.3900 249° West 158 182 8,100  Level New York Center
08:52AM 41.3733 -76.4467 251° West 153 176 8,100  Level New York Center
08:53AM 41.3581 -76.5008 249° West 153 176 8,100  Level New York Center
08:54AM 41.3433 -76.5467 247° West 148 170 8,100  Level New York Center
08:55AM 41.3261 -76.6003 247° West 148 170 8,100  Level New York Center
08:56AM 41.3108 -76.6597 251° West 153 176 8,100  Level New York Center
08:57AM 41.2956 -76.7164 250° West 158 182 8,100  Level New York Center
08:58AM 41.2803 -76.7675 248° West 158 182 8,100  Level New York Center
08:59AM 41.2650 -76.8242 250° West 158 182 8,100  Level New York Center
09:00AM 41.2478 -76.8750 246° West 158 182 8,100  Level New York Center
09:01AM 41.2325 -76.9289 249° West 163 188 8,100  Level New York Center
09:02AM 41.2172 -76.9828 249° West 163 188 8,100  Level New York Center
09:03AM 41.2019 -77.0336 248° West 163 188 8,100  Level New York Center
09:04AM 41.1844 -77.0900 248° West 163 188 8,100  Level New York Center
09:05AM 41.1692 -77.1408 248° West 163 188 8,100  Level New York Center
09:06AM 41.1539 -77.1944 249° West 163 188 8,100  Level New York Center
09:07AM 41.1383 -77.2483 249° West 163 188 8,100  Level New York Center
09:08AM 41.1231 -77.2992 248° West 163 188 8,100  Level New York Center
09:09AM 41.1056 -77.3525 246° West 163 188 8,100  Level New York Center
09:10AM 41.0944 -77.4039 254° West 163 188 8,100  Level New York Center
09:11AM 41.0769 -77.4544 245° Southwest 163 188 8,100  Level New York Center
09:12AM 41.0614 -77.5081 249° West 163 188 8,100  Level New York Center
09:13AM 41.0458 -77.5614 249° West 163 188 8,100  Level New York Center
09:14AM 41.0283 -77.6147 247° West 163 188 8,100  Level New York Center
09:15AM 41.0125 -77.6681 249° West 163 188 8,100  Level New York Center
09:16AM 40.9969 -77.7217 249° West 163 188 8,100  Level New York Center
09:17AM 40.9792 -77.7747 246° West 163 188 8,100  Level New York Center
09:18AM 40.9636 -77.8281 249° West 163 188 8,100  Level New York Center
09:19AM 40.9481 -77.8786 248° West 163 188 8,100  Level New York Center
09:20AM 40.9322 -77.9347 250° West 163 188 8,100 -60 Level New York Center
09:20AM 40.9153 -77.9864 247° West 158 182 8,000 -60 Descending Cleveland Center
09:21AM 40.8872 -78.0314 230° Southwest 160 184 8,000  Level Cleveland Center
09:22AM 40.8569 -78.0739 227° Southwest 159 183 8,000  Level Cleveland Center
09:23AM 40.8244 -78.1189 226° Southwest 160 184 8,000  Level Cleveland Center
09:24AM 40.7961 -78.1611 228° Southwest 159 183 8,000  Level Cleveland Center
09:26AM 40.7639 -78.2089 228° Southwest 161 185 8,000  Level Cleveland Center
09:27AM 40.7314 -78.2539 226° Southwest 159 183 8,000  Level Cleveland Center
09:28AM 40.6989 -78.2964 225° Southwest 159 183 8,000  Level Cleveland Center
09:29AM 40.6683 -78.3383 226° Southwest 159 183 8,000  Level Cleveland Center
09:30AM 40.6422 -78.3803 231° Southwest 159 183 8,000  Level Cleveland Center
09:31AM 40.6097 -78.4253 226° Southwest 161 185 8,000  Level Cleveland Center
09:32AM 40.5772 -78.4700 226° Southwest 161 185 8,000  Level Cleveland Center
09:33AM 40.5508 -78.5092 228° Southwest 160 184 8,000  Level Cleveland Center
09:34AM 40.5203 -78.5483 224° Southwest 161 185 8,000  Level Cleveland Center
09:35AM 40.4875 -78.5928 226° Southwest 161 185 8,000 -180 Level Cleveland Center
09:36AM 40.4550 -78.6347 224° Southwest 166 191 7,700 -420 Descending Cleveland Center
09:37AM 40.4181 -78.6769 221° Southwest 178 205 7,200 -600 Descending Cleveland Center
09:38AM 40.3772 -78.7189 218° Southwest 180 207 6,600 -600 Descending Cleveland Center
09:39AM 40.3444 -78.7633 226° Southwest 169 194 6,000 -300 Descending Cleveland Center
09:40AM 40.3136 -78.7861 209° Southwest 139 160 6,000  Level Cleveland Center
09:41AM 40.2808 -78.8169 216° Southwest 135 155 6,000  Level Cleveland Center
09:42AM 40.2478 -78.8422 210° Southwest 133 153 6,000  Level Cleveland Center
09:44AM 40.1821 -78.9133 204° Southwest  Level FlightAware Approximate
09:51AM 40.0333 -79.0000 204° Southwest  Level FlightAware Approximate
09:52AM 40.0389 -79.0150 204° Southwest  Level Estimated
09:53AM 40.0389 -79.0150 204° Southwest  Level Estimated